createdAt,value
2022-11-15T00:02:05.758Z,6.29
2022-11-15T00:06:27.808Z,6.31
2022-11-15T00:10:57.882Z,6.32
2022-11-15T00:15:19.311Z,6.32
2022-11-15T00:19:40.752Z,6.33
2022-11-15T00:24:02.266Z,6.37
2022-11-15T00:28:25.819Z,6.38
2022-11-15T00:32:47.478Z,6.38
2022-11-15T00:37:09.248Z,6.39
2022-11-15T00:41:30.709Z,6.40
2022-11-15T00:45:53.571Z,6.33
2022-11-15T00:50:15.766Z,6.30
2022-11-15T00:54:37.731Z,6.29
2022-11-15T00:58:59.513Z,6.25
2022-11-15T01:03:22.153Z,6.29
2022-11-15T01:07:43.913Z,6.33
2022-11-15T01:12:05.743Z,6.31
2022-11-15T01:16:27.262Z,6.30
2022-11-15T01:20:50.404Z,6.29
2022-11-15T01:25:11.766Z,6.22
2022-11-15T01:29:33.448Z,6.26
2022-11-15T01:33:55.087Z,6.24
2022-11-15T01:38:18.446Z,6.24
2022-11-15T01:42:40.278Z,6.22
2022-11-15T01:47:04.279Z,6.24
2022-11-15T01:51:28.834Z,6.23
2022-11-15T01:55:52.127Z,6.24
2022-11-15T02:00:15.649Z,6.25
2022-11-15T02:04:41.947Z,6.24
2022-11-15T02:09:03.899Z,6.20
2022-11-15T02:13:26.706Z,6.19
2022-11-15T02:18:08.328Z,6.23
2022-11-15T02:22:45.142Z,6.23
2022-11-15T02:27:28.979Z,6.24
2022-11-15T02:31:59.618Z,6.25
2022-11-15T02:36:32.860Z,6.27
2022-11-15T02:40:59.562Z,6.25
2022-11-15T02:45:27.027Z,6.19
2022-11-15T02:49:52.169Z,6.17
2022-11-15T02:54:17.360Z,6.14
2022-11-15T02:58:56.174Z,6.13
2022-11-15T03:03:31.391Z,6.18
2022-11-15T03:08:02.662Z,6.21
2022-11-15T03:12:30.311Z,6.25
2022-11-15T03:16:58.573Z,6.32
2022-11-15T03:21:22.391Z,6.34
2022-11-15T03:25:50.181Z,6.36
2022-11-15T03:30:13.406Z,6.39
2022-11-15T03:34:40.234Z,6.39
2022-11-15T03:39:07.289Z,6.38
2022-11-15T03:43:38.409Z,6.37
2022-11-15T03:48:04.589Z,6.37
2022-11-15T03:52:26.402Z,6.33
2022-11-15T03:56:48.024Z,6.30
2022-11-15T04:01:11.418Z,6.21
2022-11-15T04:05:33.121Z,6.18
2022-11-15T04:10:07.383Z,6.15
2022-11-15T04:14:28.591Z,6.11
2022-11-15T04:19:11.743Z,6.09
2022-11-15T04:24:02.314Z,6.13
2022-11-15T04:28:24.247Z,6.13
2022-11-15T04:32:45.642Z,6.12
2022-11-15T04:37:14.509Z,6.14
2022-11-15T04:41:36.287Z,6.17
2022-11-15T04:45:57.582Z,6.21
2022-11-15T04:50:19.596Z,6.26
2022-11-15T04:54:43.799Z,6.22
2022-11-15T04:59:05.562Z,6.18
2022-11-15T05:03:44.323Z,6.18
2022-11-15T05:08:06.774Z,6.17
2022-11-15T05:12:30.201Z,6.15
2022-11-15T05:16:52.331Z,6.12
2022-11-15T05:21:16.976Z,6.09
2022-11-15T05:25:39.118Z,6.04
2022-11-15T05:30:02.367Z,6.05
2022-11-15T05:34:25.834Z,6.06
2022-11-15T05:38:48.001Z,6.05
2022-11-15T05:43:10.238Z,6.08
2022-11-15T05:47:35.610Z,6.06
2022-11-15T05:51:58.567Z,6.08
2022-11-15T05:56:19.991Z,6.11
2022-11-15T06:00:41.986Z,6.11
2022-11-15T06:05:06.381Z,6.07
2022-11-15T06:09:28.256Z,6.04
2022-11-15T06:13:49.704Z,6.02
2022-11-15T06:18:11.566Z,5.99
2022-11-15T06:22:34.542Z,5.95
2022-11-15T06:26:55.974Z,5.91
2022-11-15T06:31:19.162Z,5.87
2022-11-15T06:35:40.855Z,5.89
2022-11-15T06:40:03.707Z,5.95
2022-11-15T06:44:25.220Z,5.97
2022-11-15T06:48:46.544Z,5.94
2022-11-15T06:53:08.018Z,5.95
2022-11-15T06:57:30.983Z,5.96
2022-11-15T07:01:52.653Z,5.96
2022-11-15T07:06:15.296Z,5.97
2022-11-15T07:10:36.950Z,5.99
2022-11-15T07:14:59.879Z,6.00
2022-11-15T07:19:21.658Z,6.08
2022-11-15T07:23:43.352Z,6.11
2022-11-15T07:28:05.666Z,6.08
2022-11-15T07:32:28.592Z,6.09
2022-11-15T07:36:51.044Z,6.07
2022-11-15T07:41:13.608Z,6.06
2022-11-15T07:45:35.783Z,6.00
2022-11-15T07:49:58.573Z,6.03
2022-11-15T07:54:20.402Z,6.06
2022-11-15T07:58:41.982Z,6.07
2022-11-15T08:03:04.964Z,6.04
2022-11-15T08:07:31.412Z,6.02
2022-11-15T08:11:53.247Z,6.01
2022-11-15T08:16:14.840Z,6.08
2022-11-15T08:20:37.688Z,6.10
2022-11-15T08:25:00.706Z,6.10
2022-11-15T08:29:22.083Z,6.10
2022-11-15T08:33:43.672Z,6.15
2022-11-15T08:38:04.886Z,6.14
2022-11-15T08:42:27.693Z,6.13
2022-11-15T08:46:49.367Z,6.14
2022-11-15T08:51:11.365Z,6.15
2022-11-15T08:55:33.005Z,6.17
2022-11-15T08:59:55.934Z,6.12
2022-11-15T09:04:17.560Z,6.11
2022-11-15T09:08:48.245Z,6.14
2022-11-15T09:13:13.369Z,6.17
2022-11-15T09:17:36.574Z,6.20
2022-11-15T09:21:58.095Z,6.20
2022-11-15T09:26:20.485Z,6.23
2022-11-15T09:30:41.825Z,6.25
2022-11-15T09:35:05.384Z,6.26
2022-11-15T09:39:27.024Z,6.26
2022-11-15T09:43:57.536Z,6.28
2022-11-15T09:48:37.812Z,6.28
2022-11-15T09:53:02.521Z,6.28
2022-11-15T09:57:13.137Z,6.30
2022-11-15T10:01:28.356Z,6.34
2022-11-15T10:05:32.556Z,6.39
2022-11-15T10:09:44.832Z,6.43
2022-11-15T10:13:50.476Z,6.43
2022-11-15T10:18:11.134Z,6.44
2022-11-15T10:22:27.697Z,6.47
2022-11-15T10:26:32.181Z,6.47
2022-11-15T10:30:37.504Z,6.51
2022-11-15T10:34:40.593Z,6.50
2022-11-15T10:38:57.792Z,6.55
2022-11-15T10:43:15.505Z,6.59
2022-11-15T10:47:27.397Z,6.63
2022-11-15T10:51:32.083Z,6.67
2022-11-15T10:55:36.966Z,6.71
2022-11-15T10:59:47.751Z,6.75
2022-11-15T11:04:02.102Z,6.82
2022-11-15T11:08:24.610Z,6.91
2022-11-15T11:12:33.770Z,6.90
2022-11-15T11:16:50.679Z,6.95
2022-11-15T11:21:00.286Z,7.01
2022-11-15T11:25:21.757Z,7.08
2022-11-15T11:29:40.594Z,7.08
2022-11-15T11:33:53.712Z,7.08
2022-11-15T11:38:07.442Z,7.08
2022-11-15T11:42:19.015Z,7.04
2022-11-15T11:46:41.184Z,7.03
2022-11-15T11:50:48.031Z,7.09
2022-11-15T11:55:06.483Z,7.08
2022-11-15T11:59:21.361Z,7.10
2022-11-15T12:03:30.745Z,7.08
2022-11-15T12:07:38.113Z,7.09
2022-11-15T12:11:56.455Z,7.07
2022-11-15T12:16:09.273Z,7.07
2022-11-15T12:20:19.713Z,7.12
2022-11-15T12:24:29.002Z,7.15
2022-11-15T12:28:52.913Z,7.17
2022-11-15T12:33:03.884Z,7.21
2022-11-15T12:37:49.384Z,7.26
2022-11-15T12:42:42.931Z,7.31
2022-11-15T12:47:05.002Z,7.30
2022-11-15T12:51:08.088Z,7.32
2022-11-15T12:55:32.804Z,7.34
2022-11-15T12:59:54.232Z,7.35
2022-11-15T13:04:25.125Z,7.34
2022-11-15T13:08:42.287Z,7.34
2022-11-15T13:12:54.893Z,7.33
2022-11-15T13:17:01.560Z,7.33
2022-11-15T13:21:23.859Z,7.36
2022-11-15T13:26:03.746Z,7.39
2022-11-15T13:30:07.634Z,7.38
2022-11-15T13:34:50.072Z,7.40
2022-11-15T13:38:57.270Z,7.46
2022-11-15T13:43:01.495Z,7.49
2022-11-15T13:47:07.248Z,7.51
2022-11-15T13:51:20.124Z,7.50
2022-11-15T13:55:24.903Z,7.53
2022-11-15T13:59:31.024Z,7.59
2022-11-15T14:03:35.960Z,7.63
2022-11-15T14:07:44.472Z,7.64
2022-11-15T14:11:55.498Z,7.63
2022-11-15T14:16:17.925Z,7.64
2022-11-15T14:20:33.563Z,7.66
2022-11-15T14:24:38.788Z,7.70
2022-11-15T14:28:41.784Z,7.71
2022-11-15T14:32:47.631Z,7.73
2022-11-15T14:36:50.777Z,7.76
2022-11-15T14:40:56.821Z,7.74
2022-11-15T14:45:00.073Z,7.71
2022-11-15T14:49:03.635Z,7.74
2022-11-15T14:53:07.270Z,7.76
2022-11-15T14:57:11.639Z,7.76
2022-11-15T15:01:25.151Z,7.80
2022-11-15T15:05:33.449Z,7.84
2022-11-15T15:09:36.431Z,7.85
2022-11-15T15:13:40.816Z,7.84
2022-11-15T15:17:44.104Z,7.84
2022-11-15T15:21:47.066Z,7.80
2022-11-15T15:25:50.860Z,7.80
2022-11-15T15:29:55.270Z,7.79
2022-11-15T15:33:58.238Z,7.79
2022-11-15T15:38:01.241Z,7.80
2022-11-15T15:42:04.907Z,7.86
2022-11-15T15:46:13.695Z,7.90
2022-11-15T15:50:23.267Z,7.89
2022-11-15T15:54:26.244Z,7.88
2022-11-15T15:58:29.719Z,7.87
2022-11-15T16:02:40.166Z,7.87
2022-11-15T16:06:51.308Z,7.82
2022-11-15T16:10:54.584Z,7.79
2022-11-15T16:14:57.649Z,7.82
2022-11-15T16:19:02.349Z,7.82
2022-11-15T16:23:09.360Z,7.84
2022-11-15T16:27:15.841Z,7.87
2022-11-15T16:31:22.137Z,7.88
2022-11-15T16:35:26.811Z,7.88
2022-11-15T16:39:30.928Z,7.89
2022-11-15T16:43:33.958Z,7.92
2022-11-15T16:47:36.972Z,7.92
2022-11-15T16:51:41.714Z,7.93
2022-11-15T16:55:44.948Z,7.96
2022-11-15T16:59:48.230Z,7.99
2022-11-15T17:03:51.703Z,8.03
2022-11-15T17:07:56.237Z,8.07
2022-11-15T17:11:59.331Z,8.08
2022-11-15T17:16:06.956Z,8.10
2022-11-15T17:20:16.580Z,8.14
2022-11-15T17:24:21.749Z,8.16
2022-11-15T17:28:24.777Z,8.17
2022-11-15T17:32:27.791Z,8.15
2022-11-15T17:36:31.246Z,8.13
2022-11-15T17:40:35.755Z,8.15
2022-11-15T17:44:38.736Z,8.14
2022-11-15T17:48:43.245Z,8.15
2022-11-15T17:52:46.410Z,8.18
2022-11-15T17:56:50.883Z,8.14
2022-11-15T18:00:53.921Z,8.11
2022-11-15T18:04:57.094Z,8.08
2022-11-15T18:09:00.783Z,8.09
2022-11-15T18:13:05.526Z,8.10
2022-11-15T18:17:08.740Z,8.18
2022-11-15T18:21:13.967Z,8.16
2022-11-15T18:25:17.704Z,8.16
2022-11-15T18:29:24.510Z,8.16
2022-11-15T18:33:28.188Z,8.13
2022-11-15T18:37:31.311Z,8.14
2022-11-15T18:41:36.307Z,8.11
2022-11-15T18:45:40.701Z,8.11
2022-11-15T18:49:43.660Z,8.12
2022-11-15T18:53:47.976Z,8.12
2022-11-15T18:57:50.908Z,8.10
2022-11-15T19:01:56.967Z,8.12
2022-11-15T19:06:04.019Z,8.12
2022-11-15T19:10:08.251Z,8.15
2022-11-15T19:14:12.736Z,8.15
2022-11-15T19:18:20.463Z,8.14
2022-11-15T19:22:23.907Z,8.10
2022-11-15T19:26:37.020Z,8.11
2022-11-15T19:30:40.645Z,8.11
2022-11-15T19:34:44.988Z,8.14
2022-11-15T19:38:48.371Z,8.16
2022-11-15T19:42:51.555Z,8.17
2022-11-15T19:46:54.833Z,8.20
2022-11-15T19:51:01.783Z,8.23
2022-11-15T19:55:05.180Z,8.25
2022-11-15T19:59:08.702Z,8.25
2022-11-15T20:03:12.190Z,8.26
2022-11-15T20:07:16.917Z,8.26
2022-11-15T20:11:21.295Z,8.27
2022-11-15T20:15:24.535Z,8.25
2022-11-15T20:19:27.727Z,8.27
2022-11-15T20:23:32.265Z,8.28
2022-11-15T20:27:35.375Z,8.25
2022-11-15T20:31:38.424Z,8.18
2022-11-15T20:35:42.189Z,8.16
2022-11-15T20:39:46.588Z,8.10
2022-11-15T20:43:49.720Z,8.05
2022-11-15T20:47:55.882Z,8.05
2022-11-15T20:51:58.898Z,8.03
2022-11-15T20:56:07.796Z,8.03
2022-11-15T21:00:11.936Z,8.02
2022-11-15T21:04:15.085Z,8.02
2022-11-15T21:08:18.060Z,8.04
2022-11-15T21:12:21.466Z,8.05
2022-11-15T21:16:24.474Z,8.04
2022-11-15T21:20:28.114Z,8.07
2022-11-15T21:24:31.373Z,8.07
2022-11-15T21:28:36.089Z,8.06
2022-11-15T21:32:39.378Z,8.04
2022-11-15T21:36:42.427Z,8.03
2022-11-15T21:40:45.541Z,8.00
2022-11-15T21:44:49.999Z,7.99
2022-11-15T21:48:52.966Z,7.97
2022-11-15T21:52:56.173Z,7.98
2022-11-15T21:56:59.728Z,7.95
2022-11-15T22:01:24.338Z,7.96
2022-11-15T22:05:27.693Z,7.97
2022-11-15T22:09:30.826Z,7.97
2022-11-15T22:13:34.341Z,7.96
2022-11-15T22:17:56.086Z,7.95
2022-11-15T22:21:59.276Z,7.93
2022-11-15T22:26:03.055Z,7.88
2022-11-15T22:30:06.797Z,7.88
2022-11-15T22:34:11.404Z,7.88
2022-11-15T22:38:14.823Z,7.89
2022-11-15T22:42:23.232Z,7.90
2022-11-15T22:46:27.885Z,7.91
2022-11-15T22:50:32.454Z,7.89
2022-11-15T22:54:35.772Z,7.90
2022-11-15T22:58:38.990Z,7.90
2022-11-15T23:02:42.367Z,7.92
2022-11-15T23:06:47.084Z,7.94
2022-11-15T23:11:07.537Z,7.92
2022-11-15T23:15:11.379Z,7.94
2022-11-15T23:19:14.779Z,7.94
2022-11-15T23:23:19.690Z,7.93
2022-11-15T23:27:23.878Z,7.94
2022-11-15T23:31:44.175Z,7.95
2022-11-15T23:35:54.950Z,7.93
2022-11-15T23:39:59.495Z,7.94
2022-11-15T23:44:02.805Z,7.91
2022-11-15T23:48:06.726Z,7.92
2022-11-15T23:52:09.914Z,7.90
2022-11-15T23:56:16.682Z,7.89
